Floweree, MT (59440)

3:15 AM MST on February 06, 2016 (GMT -0700)
Countryside Village | | Change Station
CLOSE
Current Station
Personal Weather Station
Location: Great Falls, MT
Elevation: 3514 ft
Nearby Weather Stations
Active Advisory: High Wind Warning

Elev 3514 ft 47.54 °N, 111.29 °W | Updated 3 seconds ago

Mostly Cloudy
Mostly Cloudy
44.4 °F
Feels Like 37 °F
N
15.3
Wind Variable Wind from SW
Gusts 36.5 mph

Today
High -- | Low -- °F
--% Chance of Precip.
Yesterday
High -- | Low -- °F
Precip. -- in
Pressure 29.98 in
Visibility 10.0 miles
Clouds Scattered Clouds 18000 ft
Windchill 37 °F
Dew Point 20 °F
Humidity 37%
Rainfall 0.11 in
Snow Depth Not available.
7:45 AM 5:33 PM
Waning Crescent, 6% visible
METAR KGFA 060958Z AUTO 21023G34KT 10SM SCT180 06/M06 A2992 RMK AO2 PK WND 20033/46 SLP151 T00611058 TSNO $
Pressure 29.98 in
Visibility 10.0 miles
Clouds Scattered Clouds 18000 ft
Windchill 37 °F
Dew Point 20 °F
Humidity 37%
Rainfall 0.11 in
Snow Depth Not available.
7:45 AM 5:33 PM
Waning Crescent, 6% visible
METAR KGFA 060958Z AUTO 21023G34KT 10SM SCT180 06/M06 A2992 RMK AO2 PK WND 20033/46 SLP151 T00611058 TSNO $

10-Day Weather Forecast

Almanac

Astronomy

Feb. 06, 2016 Rise Set
Actual Time
Civil Twilight
Nautical Twilight
Astronomical Twilight
Moon
Length of Visible Light
Length of Day
Tomorrow will be .
, % of the Moon is Illuminated

Today's Extremes

State Highs State Lows

Community

WunderPhotos

Upload Photos

1,890,933 photos uploaded!

WunderBlog® & News

Nearby

Air Quality

  Air Quality AQ Index Pollutant
Not available.

Snow Depth

Station Depth Elevation

Earthquake Activity

City Distance Mag. Time & Date
Minimum magnitude displayed is 2.5.

Coastal Water Temperatures

Place Temperature

Stations

Nearby Weather Stations

Station Location Temp. Windchill Dew Point Humidity Wind Precip. Elev Updated Type
                   

Watches & Warnings

High Wind Warning
Issued: 9:05 PM MST Feb. 5, 2016 – National Weather Service

... High Wind Warning remains in effect until 5 PM MST Saturday...

* timing... southwest to west winds will increase late this
evening and remain strong through Saturday afternoon.
Strongest winds are likely to occur Saturday morning.

* Winds... southwest to west winds 35 to 45 mph with gusts to 70
mph.

* Impacts... strong winds may cause difficult driving conditions
for high profile vehicles.

Precautionary/preparedness actions...

A High Wind Warning means a hazardous high wind event is expected
or occurring. Strong winds endanger transportation and could
cause property damage.